sensor_id;sensor_type;location;lat;lon;timestamp;P1;durP1;ratioP1;P2;durP2;ratioP2
75012;SDS011;63567;49.956;20.130;2024-01-15T00:02:00;6.85;;;2.92;;
75012;SDS011;63567;49.956;20.130;2024-01-15T00:04:26;6.45;;;2.60;;
75012;SDS011;63567;49.956;20.130;2024-01-15T00:06:51;4.93;;;2.40;;
75012;SDS011;63567;49.956;20.130;2024-01-15T00:09:16;4.43;;;2.10;;
75012;SDS011;63567;49.956;20.130;2024-01-15T00:11:42;5.03;;;2.30;;
75012;SDS011;63567;49.956;20.130;2024-01-15T00:14:08;7.28;;;2.60;;
75012;SDS011;63567;49.956;20.130;2024-01-15T00:16:33;4.63;;;2.45;;
75012;SDS011;63567;49.956;20.130;2024-01-15T00:18:59;5.33;;;2.80;;
75012;SDS011;63567;49.956;20.130;2024-01-15T00:21:24;5.90;;;2.60;;
75012;SDS011;63567;49.956;20.130;2024-01-15T00:23:49;4.43;;;2.27;;
75012;SDS011;63567;49.956;20.130;2024-01-15T00:26:14;5.77;;;2.50;;
75012;SDS011;63567;49.956;20.130;2024-01-15T00:28:40;5.97;;;2.67;;
75012;SDS011;63567;49.956;20.130;2024-01-15T00:31:05;5.77;;;2.27;;
75012;SDS011;63567;49.956;20.130;2024-01-15T00:33:31;4.90;;;2.07;;
75012;SDS011;63567;49.956;20.130;2024-01-15T00:35:56;4.90;;;2.10;;
75012;SDS011;63567;49.956;20.130;2024-01-15T00:38:21;4.73;;;2.40;;
75012;SDS011;63567;49.956;20.130;2024-01-15T00:40:47;6.45;;;2.55;;
75012;SDS011;63567;49.956;20.130;2024-01-15T00:43:12;5.70;;;2.70;;
75012;SDS011;63567;49.956;20.130;2024-01-15T00:45:37;4.60;;;2.30;;
75012;SDS011;63567;49.956;20.130;2024-01-15T00:48:03;7.80;;;2.70;;
75012;SDS011;63567;49.956;20.130;2024-01-15T00:50:29;4.82;;;2.45;;
75012;SDS011;63567;49.956;20.130;2024-01-15T00:52:54;5.57;;;2.92;;
75012;SDS011;63567;49.956;20.130;2024-01-15T00:55:19;4.60;;;2.90;;
75012;SDS011;63567;49.956;20.130;2024-01-15T00:57:45;7.10;;;3.00;;
75012;SDS011;63567;49.956;20.130;2024-01-15T01:00:10;6.07;;;2.80;;
75012;SDS011;63567;49.956;20.130;2024-01-15T01:02:36;5.15;;;2.88;;
75012;SDS011;63567;49.956;20.130;2024-01-15T01:05:01;4.87;;;2.00;;
75012;SDS011;63567;49.956;20.130;2024-01-15T01:07:28;4.00;;;1.77;;
75012;SDS011;63567;49.956;20.130;2024-01-15T01:09:53;4.00;;;1.77;;
75012;SDS011;63567;49.956;20.130;2024-01-15T01:12:18;3.47;;;1.63;;
75012;SDS011;63567;49.956;20.130;2024-01-15T01:14:44;4.40;;;1.90;;
75012;SDS011;63567;49.956;20.130;2024-01-15T01:17:09;4.20;;;1.97;;
75012;SDS011;63567;49.956;20.130;2024-01-15T01:19:34;4.33;;;1.93;;
75012;SDS011;63567;49.956;20.130;2024-01-15T01:21:59;4.57;;;1.93;;
75012;SDS011;63567;49.956;20.130;2024-01-15T01:24:25;4.80;;;2.03;;
75012;SDS011;63567;49.956;20.130;2024-01-15T01:26:50;4.03;;;1.80;;
75012;SDS011;63567;49.956;20.130;2024-01-15T01:29:15;4.03;;;1.90;;
75012;SDS011;63567;49.956;20.130;2024-01-15T01:31:44;5.17;;;1.60;;
75012;SDS011;63567;49.956;20.130;2024-01-15T01:34:10;5.03;;;1.95;;
75012;SDS011;63567;49.956;20.130;2024-01-15T01:36:35;4.63;;;2.17;;
75012;SDS011;63567;49.956;20.130;2024-01-15T01:39:01;4.43;;;1.80;;
75012;SDS011;63567;49.956;20.130;2024-01-15T01:41:26;4.87;;;2.00;;
75012;SDS011;63567;49.956;20.130;2024-01-15T01:43:51;6.17;;;2.20;;
75012;SDS011;63567;49.956;20.130;2024-01-15T01:46:16;5.57;;;2.47;;
75012;SDS011;63567;49.956;20.130;2024-01-15T01:48:42;4.55;;;2.03;;
75012;SDS011;63567;49.956;20.130;2024-01-15T01:51:08;5.53;;;2.38;;
75012;SDS011;63567;49.956;20.130;2024-01-15T01:53:34;4.63;;;1.95;;
75012;SDS011;63567;49.956;20.130;2024-01-15T01:56:01;4.72;;;1.67;;
75012;SDS011;63567;49.956;20.130;2024-01-15T01:58:27;4.95;;;1.60;;
75012;SDS011;63567;49.956;20.130;2024-01-15T02:00:54;3.60;;;1.13;;
75012;SDS011;63567;49.956;20.130;2024-01-15T02:03:19;3.38;;;1.23;;
75012;SDS011;63567;49.956;20.130;2024-01-15T02:05:45;3.50;;;1.15;;
75012;SDS011;63567;49.956;20.130;2024-01-15T02:08:13;6.70;;;1.58;;
75012;SDS011;63567;49.956;20.130;2024-01-15T02:10:39;6.20;;;1.92;;
75012;SDS011;63567;49.956;20.130;2024-01-15T02:13:04;4.77;;;1.90;;
75012;SDS011;63567;49.956;20.130;2024-01-15T02:15:30;4.17;;;1.70;;
75012;SDS011;63567;49.956;20.130;2024-01-15T02:17:58;5.27;;;1.90;;
75012;SDS011;63567;49.956;20.130;2024-01-15T02:25:44;4.35;;;1.40;;
75012;SDS011;63567;49.956;20.130;2024-01-15T02:28:12;4.50;;;1.50;;
75012;SDS011;63567;49.956;20.130;2024-01-15T02:30:39;5.05;;;1.77;;
75012;SDS011;63567;49.956;20.130;2024-01-15T02:33:09;5.07;;;1.50;;
75012;SDS011;63567;49.956;20.130;2024-01-15T02:35:35;4.18;;;1.38;;
75012;SDS011;63567;49.956;20.130;2024-01-15T02:38:03;5.03;;;1.65;;
75012;SDS011;63567;49.956;20.130;2024-01-15T02:40:30;3.30;;;1.17;;
75012;SDS011;63567;49.956;20.130;2024-01-15T02:42:55;4.15;;;1.30;;
75012;SDS011;63567;49.956;20.130;2024-01-15T02:45:21;4.83;;;1.70;;
75012;SDS011;63567;49.956;20.130;2024-01-15T02:47:47;4.70;;;1.55;;
75012;SDS011;63567;49.956;20.130;2024-01-15T02:50:12;3.50;;;1.30;;
75012;SDS011;63567;49.956;20.130;2024-01-15T02:52:37;5.75;;;1.63;;
75012;SDS011;63567;49.956;20.130;2024-01-15T02:55:03;2.73;;;1.10;;
75012;SDS011;63567;49.956;20.130;2024-01-15T02:57:29;3.72;;;1.58;;
75012;SDS011;63567;49.956;20.130;2024-01-15T02:59:54;4.13;;;1.30;;
75012;SDS011;63567;49.956;20.130;2024-01-15T03:02:19;2.67;;;0.80;;
75012;SDS011;63567;49.956;20.130;2024-01-15T03:04:44;3.30;;;0.80;;
75012;SDS011;63567;49.956;20.130;2024-01-15T03:07:10;1.42;;;0.40;;
75012;SDS011;63567;49.956;20.130;2024-01-15T03:09:35;2.80;;;0.97;;
75012;SDS011;63567;49.956;20.130;2024-01-15T03:12:00;3.83;;;1.20;;
75012;SDS011;63567;49.956;20.130;2024-01-15T03:14:26;4.30;;;1.17;;
75012;SDS011;63567;49.956;20.130;2024-01-15T03:16:51;5.10;;;1.23;;
75012;SDS011;63567;49.956;20.130;2024-01-15T03:19:17;3.30;;;1.20;;
75012;SDS011;63567;49.956;20.130;2024-01-15T03:21:42;4.10;;;1.53;;
75012;SDS011;63567;49.956;20.130;2024-01-15T03:24:07;6.93;;;2.37;;
75012;SDS011;63567;49.956;20.130;2024-01-15T03:26:33;9.23;;;3.30;;
75012;SDS011;63567;49.956;20.130;2024-01-15T03:28:58;5.30;;;2.10;;
75012;SDS011;63567;49.956;20.130;2024-01-15T03:31:23;4.10;;;1.30;;
75012;SDS011;63567;49.956;20.130;2024-01-15T03:33:48;3.00;;;1.00;;
75012;SDS011;63567;49.956;20.130;2024-01-15T03:36:14;4.87;;;1.80;;
75012;SDS011;63567;49.956;20.130;2024-01-15T03:38:40;4.40;;;1.53;;
75012;SDS011;63567;49.956;20.130;2024-01-15T03:41:06;2.75;;;1.10;;
75012;SDS011;63567;49.956;20.130;2024-01-15T03:43:32;4.13;;;1.55;;
75012;SDS011;63567;49.956;20.130;2024-01-15T03:45:57;4.80;;;1.90;;
75012;SDS011;63567;49.956;20.130;2024-01-15T03:48:23;3.43;;;1.33;;
75012;SDS011;63567;49.956;20.130;2024-01-15T03:50:48;2.50;;;0.80;;
75012;SDS011;63567;49.956;20.130;2024-01-15T03:53:13;4.57;;;1.97;;
75012;SDS011;63567;49.956;20.130;2024-01-15T03:55:38;3.97;;;1.50;;
75012;SDS011;63567;49.956;20.130;2024-01-15T03:58:04;3.13;;;1.20;;
75012;SDS011;63567;49.956;20.130;2024-01-15T04:00:29;3.13;;;1.13;;
75012;SDS011;63567;49.956;20.130;2024-01-15T04:02:54;3.57;;;1.10;;
75012;SDS011;63567;49.956;20.130;2024-01-15T04:05:19;2.40;;;0.73;;
75012;SDS011;63567;49.956;20.130;2024-01-15T04:07:45;2.53;;;1.00;;
75012;SDS011;63567;49.956;20.130;2024-01-15T04:10:10;2.23;;;0.60;;
75012;SDS011;63567;49.956;20.130;2024-01-15T04:12:35;4.85;;;1.00;;
75012;SDS011;63567;49.956;20.130;2024-01-15T04:15:01;3.07;;;0.97;;
75012;SDS011;63567;49.956;20.130;2024-01-15T04:17:26;3.00;;;1.20;;
75012;SDS011;63567;49.956;20.130;2024-01-15T04:19:52;3.17;;;0.93;;
75012;SDS011;63567;49.956;20.130;2024-01-15T04:22:17;3.37;;;1.20;;
75012;SDS011;63567;49.956;20.130;2024-01-15T04:24:42;3.60;;;1.30;;
75012;SDS011;63567;49.956;20.130;2024-01-15T04:27:07;2.43;;;0.97;;
75012;SDS011;63567;49.956;20.130;2024-01-15T04:29:33;2.92;;;1.08;;
75012;SDS011;63567;49.956;20.130;2024-01-15T04:31:58;2.00;;;0.60;;
75012;SDS011;63567;49.956;20.130;2024-01-15T04:34:23;2.20;;;0.80;;
75012;SDS011;63567;49.956;20.130;2024-01-15T04:36:48;1.90;;;0.80;;
75012;SDS011;63567;49.956;20.130;2024-01-15T04:39:14;3.00;;;1.10;;
75012;SDS011;63567;49.956;20.130;2024-01-15T04:41:39;3.10;;;1.13;;
75012;SDS011;63567;49.956;20.130;2024-01-15T04:44:04;5.37;;;1.50;;
75012;SDS011;63567;49.956;20.130;2024-01-15T04:46:29;5.40;;;2.20;;
75012;SDS011;63567;49.956;20.130;2024-01-15T04:48:55;6.27;;;1.80;;
75012;SDS011;63567;49.956;20.130;2024-01-15T04:51:20;6.27;;;1.80;;
75012;SDS011;63567;49.956;20.130;2024-01-15T04:53:45;7.47;;;2.17;;
75012;SDS011;63567;49.956;20.130;2024-01-15T04:56:10;6.83;;;2.10;;
75012;SDS011;63567;49.956;20.130;2024-01-15T04:58:36;6.27;;;2.23;;
75012;SDS011;63567;49.956;20.130;2024-01-15T05:01:01;6.97;;;2.17;;
75012;SDS011;63567;49.956;20.130;2024-01-15T05:03:26;6.00;;;2.07;;
75012;SDS011;63567;49.956;20.130;2024-01-15T05:05:51;5.13;;;1.90;;
75012;SDS011;63567;49.956;20.130;2024-01-15T05:08:17;7.17;;;2.20;;
75012;SDS011;63567;49.956;20.130;2024-01-15T05:10:42;4.87;;;2.00;;
75012;SDS011;63567;49.956;20.130;2024-01-15T05:13:07;4.87;;;1.80;;
75012;SDS011;63567;49.956;20.130;2024-01-15T05:15:33;3.80;;;1.30;;
75012;SDS011;63567;49.956;20.130;2024-01-15T05:17:58;3.57;;;0.90;;
75012;SDS011;63567;49.956;20.130;2024-01-15T05:20:23;3.27;;;1.20;;
75012;SDS011;63567;49.956;20.130;2024-01-15T05:22:48;2.40;;;1.00;;
75012;SDS011;63567;49.956;20.130;2024-01-15T05:25:14;2.07;;;0.80;;
75012;SDS011;63567;49.956;20.130;2024-01-15T05:27:39;4.00;;;1.13;;
75012;SDS011;63567;49.956;20.130;2024-01-15T05:30:04;3.17;;;1.07;;
75012;SDS011;63567;49.956;20.130;2024-01-15T05:32:30;4.10;;;1.27;;
75012;SDS011;63567;49.956;20.130;2024-01-15T05:34:55;2.47;;;1.03;;
75012;SDS011;63567;49.956;20.130;2024-01-15T05:37:20;2.57;;;0.87;;
75012;SDS011;63567;49.956;20.130;2024-01-15T05:39:46;2.90;;;0.87;;
75012;SDS011;63567;49.956;20.130;2024-01-15T05:42:11;2.63;;;0.77;;
75012;SDS011;63567;49.956;20.130;2024-01-15T05:44:36;2.87;;;1.00;;
75012;SDS011;63567;49.956;20.130;2024-01-15T05:47:01;3.40;;;1.00;;
75012;SDS011;63567;49.956;20.130;2024-01-15T05:49:28;2.60;;;0.93;;
75012;SDS011;63567;49.956;20.130;2024-01-15T05:51:54;3.90;;;1.30;;
75012;SDS011;63567;49.956;20.130;2024-01-15T05:54:19;2.27;;;0.80;;
75012;SDS011;63567;49.956;20.130;2024-01-15T05:56:45;2.33;;;0.90;;
75012;SDS011;63567;49.956;20.130;2024-01-15T05:59:10;2.33;;;1.03;;
75012;SDS011;63567;49.956;20.130;2024-01-15T06:01:35;2.53;;;0.83;;
75012;SDS011;63567;49.956;20.130;2024-01-15T06:04:00;3.00;;;1.00;;
75012;SDS011;63567;49.956;20.130;2024-01-15T06:06:26;2.87;;;1.00;;
75012;SDS011;63567;49.956;20.130;2024-01-15T06:08:51;3.20;;;1.50;;
75012;SDS011;63567;49.956;20.130;2024-01-15T06:11:16;2.60;;;1.07;;
75012;SDS011;63567;49.956;20.130;2024-01-15T06:13:41;2.30;;;0.90;;
75012;SDS011;63567;49.956;20.130;2024-01-15T06:16:16;2.43;;;0.77;;
75012;SDS011;63567;49.956;20.130;2024-01-15T06:18:41;2.92;;;1.08;;
75012;SDS011;63567;49.956;20.130;2024-01-15T06:21:07;3.90;;;1.20;;
75012;SDS011;63567;49.956;20.130;2024-01-15T06:23:35;3.58;;;1.13;;
75012;SDS011;63567;49.956;20.130;2024-01-15T06:26:00;2.10;;;1.00;;
75012;SDS011;63567;49.956;20.130;2024-01-15T06:28:28;2.38;;;1.00;;
75012;SDS011;63567;49.956;20.130;2024-01-15T06:30:53;2.87;;;1.10;;
75012;SDS011;63567;49.956;20.130;2024-01-15T06:33:19;3.13;;;1.60;;
75012;SDS011;63567;49.956;20.130;2024-01-15T06:35:44;3.47;;;1.40;;
75012;SDS011;63567;49.956;20.130;2024-01-15T06:38:09;2.63;;;1.23;;
75012;SDS011;63567;49.956;20.130;2024-01-15T06:40:34;3.00;;;1.37;;
75012;SDS011;63567;49.956;20.130;2024-01-15T06:43:00;4.03;;;1.40;;
75012;SDS011;63567;49.956;20.130;2024-01-15T06:45:26;3.37;;;1.20;;
75012;SDS011;63567;49.956;20.130;2024-01-15T06:47:51;3.07;;;1.23;;
75012;SDS011;63567;49.956;20.130;2024-01-15T06:50:16;4.13;;;1.53;;
75012;SDS011;63567;49.956;20.130;2024-01-15T06:52:41;3.47;;;1.40;;
75012;SDS011;63567;49.956;20.130;2024-01-15T06:55:07;5.17;;;2.30;;
75012;SDS011;63567;49.956;20.130;2024-01-15T06:57:32;3.97;;;1.50;;
75012;SDS011;63567;49.956;20.130;2024-01-15T06:59:57;3.87;;;1.43;;
75012;SDS011;63567;49.956;20.130;2024-01-15T07:02:23;4.60;;;1.63;;
75012;SDS011;63567;49.956;20.130;2024-01-15T07:04:48;4.07;;;1.73;;
75012;SDS011;63567;49.956;20.130;2024-01-15T07:07:13;4.13;;;1.93;;
75012;SDS011;63567;49.956;20.130;2024-01-15T07:09:38;3.47;;;1.50;;
75012;SDS011;63567;49.956;20.130;2024-01-15T07:12:03;5.03;;;2.20;;
75012;SDS011;63567;49.956;20.130;2024-01-15T07:14:29;4.75;;;1.70;;
75012;SDS011;63567;49.956;20.130;2024-01-15T07:16:54;3.83;;;1.70;;
75012;SDS011;63567;49.956;20.130;2024-01-15T07:19:19;4.93;;;1.93;;
75012;SDS011;63567;49.956;20.130;2024-01-15T07:21:45;4.43;;;1.87;;
75012;SDS011;63567;49.956;20.130;2024-01-15T07:24:10;3.43;;;1.57;;
75012;SDS011;63567;49.956;20.130;2024-01-15T07:26:35;4.93;;;1.90;;
75012;SDS011;63567;49.956;20.130;2024-01-15T07:29:00;3.67;;;1.60;;
75012;SDS011;63567;49.956;20.130;2024-01-15T07:31:26;3.77;;;1.90;;
75012;SDS011;63567;49.956;20.130;2024-01-15T07:33:51;4.70;;;2.03;;
75012;SDS011;63567;49.956;20.130;2024-01-15T07:36:17;4.23;;;1.80;;
75012;SDS011;63567;49.956;20.130;2024-01-15T07:38:42;4.50;;;1.80;;
75012;SDS011;63567;49.956;20.130;2024-01-15T07:41:08;4.30;;;1.83;;
75012;SDS011;63567;49.956;20.130;2024-01-15T07:43:33;4.80;;;2.30;;
75012;SDS011;63567;49.956;20.130;2024-01-15T07:45:58;3.78;;;1.83;;
75012;SDS011;63567;49.956;20.130;2024-01-15T07:48:23;4.30;;;2.13;;
75012;SDS011;63567;49.956;20.130;2024-01-15T07:50:49;5.23;;;2.43;;
75012;SDS011;63567;49.956;20.130;2024-01-15T07:53:14;5.20;;;2.40;;
75012;SDS011;63567;49.956;20.130;2024-01-15T07:55:39;6.00;;;2.50;;
75012;SDS011;63567;49.956;20.130;2024-01-15T07:58:05;6.20;;;2.37;;
75012;SDS011;63567;49.956;20.130;2024-01-15T08:00:30;4.60;;;2.20;;
75012;SDS011;63567;49.956;20.130;2024-01-15T08:02:55;5.73;;;2.37;;
75012;SDS011;63567;49.956;20.130;2024-01-15T08:05:20;5.20;;;2.30;;
75012;SDS011;63567;49.956;20.130;2024-01-15T08:07:46;4.90;;;2.47;;
75012;SDS011;63567;49.956;20.130;2024-01-15T08:10:11;4.88;;;2.63;;
75012;SDS011;63567;49.956;20.130;2024-01-15T08:12:38;5.30;;;2.10;;
75012;SDS011;63567;49.956;20.130;2024-01-15T08:15:04;5.73;;;2.60;;
75012;SDS011;63567;49.956;20.130;2024-01-15T08:17:30;3.67;;;2.05;;
75012;SDS011;63567;49.956;20.130;2024-01-15T08:19:57;4.85;;;2.30;;
75012;SDS011;63567;49.956;20.130;2024-01-15T08:22:22;5.20;;;2.70;;
75012;SDS011;63567;49.956;20.130;2024-01-15T08:24:47;4.77;;;2.40;;
75012;SDS011;63567;49.956;20.130;2024-01-15T08:27:13;6.53;;;2.70;;
75012;SDS011;63567;49.956;20.130;2024-01-15T08:29:38;6.13;;;2.80;;
75012;SDS011;63567;49.956;20.130;2024-01-15T08:32:03;5.57;;;2.93;;
75012;SDS011;63567;49.956;20.130;2024-01-15T08:34:29;6.13;;;3.10;;
75012;SDS011;63567;49.956;20.130;2024-01-15T08:36:54;7.07;;;2.97;;
75012;SDS011;63567;49.956;20.130;2024-01-15T08:39:19;5.50;;;2.60;;
75012;SDS011;63567;49.956;20.130;2024-01-15T08:41:46;6.23;;;2.73;;
75012;SDS011;63567;49.956;20.130;2024-01-15T08:44:14;7.05;;;3.20;;
75012;SDS011;63567;49.956;20.130;2024-01-15T08:46:39;7.63;;;3.73;;
75012;SDS011;63567;49.956;20.130;2024-01-15T08:49:04;6.80;;;3.30;;
75012;SDS011;63567;49.956;20.130;2024-01-15T08:51:30;5.97;;;3.03;;
75012;SDS011;63567;49.956;20.130;2024-01-15T08:53:56;6.33;;;2.93;;
75012;SDS011;63567;49.956;20.130;2024-01-15T08:56:22;6.78;;;3.70;;
75012;SDS011;63567;49.956;20.130;2024-01-15T08:58:47;8.27;;;3.77;;
75012;SDS011;63567;49.956;20.130;2024-01-15T09:01:12;7.00;;;3.35;;
75012;SDS011;63567;49.956;20.130;2024-01-15T09:03:38;8.07;;;3.57;;
75012;SDS011;63567;49.956;20.130;2024-01-15T09:06:03;6.93;;;3.60;;
75012;SDS011;63567;49.956;20.130;2024-01-15T09:08:28;7.38;;;4.50;;
75012;SDS011;63567;49.956;20.130;2024-01-15T09:10:54;6.87;;;3.80;;
75012;SDS011;63567;49.956;20.130;2024-01-15T09:13:19;7.70;;;3.83;;
75012;SDS011;63567;49.956;20.130;2024-01-15T09:15:44;8.43;;;3.63;;
75012;SDS011;63567;49.956;20.130;2024-01-15T09:18:09;7.93;;;3.60;;
75012;SDS011;63567;49.956;20.130;2024-01-15T09:20:35;6.30;;;3.53;;
75012;SDS011;63567;49.956;20.130;2024-01-15T09:23:00;7.10;;;3.50;;
75012;SDS011;63567;49.956;20.130;2024-01-15T09:25:25;6.80;;;3.33;;
75012;SDS011;63567;49.956;20.130;2024-01-15T09:27:51;8.43;;;3.70;;
75012;SDS011;63567;49.956;20.130;2024-01-15T09:30:16;5.80;;;2.95;;
75012;SDS011;63567;49.956;20.130;2024-01-15T09:32:42;8.23;;;3.73;;
75012;SDS011;63567;49.956;20.130;2024-01-15T09:35:07;8.13;;;3.40;;
75012;SDS011;63567;49.956;20.130;2024-01-15T09:37:33;7.50;;;3.55;;
75012;SDS011;63567;49.956;20.130;2024-01-15T09:39:58;6.80;;;4.00;;
75012;SDS011;63567;49.956;20.130;2024-01-15T09:42:23;7.90;;;3.57;;
75012;SDS011;63567;49.956;20.130;2024-01-15T09:44:50;6.53;;;3.28;;
75012;SDS011;63567;49.956;20.130;2024-01-15T09:47:15;8.40;;;4.10;;
75012;SDS011;63567;49.956;20.130;2024-01-15T09:49:42;7.53;;;2.80;;
75012;SDS011;63567;49.956;20.130;2024-01-15T09:52:07;6.37;;;3.00;;
75012;SDS011;63567;49.956;20.130;2024-01-15T09:54:34;8.30;;;3.17;;
75012;SDS011;63567;49.956;20.130;2024-01-15T09:57:00;7.10;;;3.42;;
75012;SDS011;63567;49.956;20.130;2024-01-15T09:59:25;7.35;;;3.30;;
75012;SDS011;63567;49.956;20.130;2024-01-15T10:01:52;6.93;;;3.28;;
75012;SDS011;63567;49.956;20.130;2024-01-15T10:04:19;7.53;;;3.50;;
75012;SDS011;63567;49.956;20.130;2024-01-15T10:06:44;5.87;;;2.97;;
75012;SDS011;63567;49.956;20.130;2024-01-15T10:09:12;7.53;;;3.45;;
75012;SDS011;63567;49.956;20.130;2024-01-15T10:11:39;6.53;;;3.13;;
75012;SDS011;63567;49.956;20.130;2024-01-15T10:14:05;6.93;;;3.58;;
75012;SDS011;63567;49.956;20.130;2024-01-15T10:16:31;6.65;;;3.20;;
75012;SDS011;63567;49.956;20.130;2024-01-15T10:18:56;6.77;;;3.03;;
75012;SDS011;63567;49.956;20.130;2024-01-15T10:21:22;7.87;;;4.00;;
75012;SDS011;63567;49.956;20.130;2024-01-15T10:23:47;6.43;;;3.33;;
75012;SDS011;63567;49.956;20.130;2024-01-15T10:26:12;8.83;;;3.83;;
75012;SDS011;63567;49.956;20.130;2024-01-15T10:28:37;7.53;;;3.87;;
75012;SDS011;63567;49.956;20.130;2024-01-15T10:31:03;6.70;;;3.73;;
75012;SDS011;63567;49.956;20.130;2024-01-15T10:33:29;7.40;;;3.88;;
75012;SDS011;63567;49.956;20.130;2024-01-15T10:35:55;5.97;;;3.20;;
75012;SDS011;63567;49.956;20.130;2024-01-15T10:38:24;7.50;;;3.38;;
75012;SDS011;63567;49.956;20.130;2024-01-15T10:40:53;10.15;;;3.95;;
75012;SDS011;63567;49.956;20.130;2024-01-15T10:43:19;7.97;;;3.70;;
75012;SDS011;63567;49.956;20.130;2024-01-15T10:45:45;7.88;;;3.92;;
75012;SDS011;63567;49.956;20.130;2024-01-15T10:48:12;8.75;;;3.75;;
75012;SDS011;63567;49.956;20.130;2024-01-15T10:50:37;8.63;;;3.80;;
75012;SDS011;63567;49.956;20.130;2024-01-15T10:53:04;9.82;;;4.30;;
75012;SDS011;63567;49.956;20.130;2024-01-15T10:55:30;8.10;;;3.95;;
75012;SDS011;63567;49.956;20.130;2024-01-15T10:57:58;7.75;;;4.45;;
75012;SDS011;63567;49.956;20.130;2024-01-15T11:00:23;7.03;;;3.77;;
75012;SDS011;63567;49.956;20.130;2024-01-15T11:02:50;7.63;;;3.53;;
75012;SDS011;63567;49.956;20.130;2024-01-15T11:05:16;7.97;;;3.88;;
75012;SDS011;63567;49.956;20.130;2024-01-15T11:07:43;6.60;;;3.15;;
75012;SDS011;63567;49.956;20.130;2024-01-15T11:10:16;8.88;;;3.95;;
75012;SDS011;63567;49.956;20.130;2024-01-15T11:13:05;8.18;;;3.88;;
75012;SDS011;63567;49.956;20.130;2024-01-15T11:15:36;9.57;;;4.28;;
75012;SDS011;63567;49.956;20.130;2024-01-15T11:18:22;10.32;;;4.43;;
75012;SDS011;63567;49.956;20.130;2024-01-15T11:23:45;8.68;;;4.03;;
75012;SDS011;63567;49.956;20.130;2024-01-15T11:29:01;8.95;;;4.35;;
75012;SDS011;63567;49.956;20.130;2024-01-15T11:34:09;7.22;;;3.80;;
75012;SDS011;63567;49.956;20.130;2024-01-15T11:41:58;8.90;;;4.50;;
75012;SDS011;63567;49.956;20.130;2024-01-15T11:44:28;8.90;;;4.43;;
75012;SDS011;63567;49.956;20.130;2024-01-15T11:50:11;9.50;;;4.28;;
75012;SDS011;63567;49.956;20.130;2024-01-15T11:52:34;7.65;;;3.70;;
75012;SDS011;63567;49.956;20.130;2024-01-15T11:55:04;7.03;;;3.53;;
75012;SDS011;63567;49.956;20.130;2024-01-15T11:57:42;6.10;;;2.83;;
75012;SDS011;63567;49.956;20.130;2024-01-15T12:00:11;6.40;;;2.75;;
75012;SDS011;63567;49.956;20.130;2024-01-15T12:02:41;6.20;;;3.05;;
75012;SDS011;63567;49.956;20.130;2024-01-15T12:05:08;6.43;;;2.90;;
75012;SDS011;63567;49.956;20.130;2024-01-15T12:07:34;7.55;;;3.40;;
75012;SDS011;63567;49.956;20.130;2024-01-15T12:10:00;6.57;;;2.95;;
75012;SDS011;63567;49.956;20.130;2024-01-15T12:12:37;7.78;;;3.20;;
75012;SDS011;63567;49.956;20.130;2024-01-15T12:15:04;5.68;;;2.80;;
75012;SDS011;63567;49.956;20.130;2024-01-15T12:17:30;6.55;;;2.60;;
75012;SDS011;63567;49.956;20.130;2024-01-15T12:19:56;5.65;;;2.70;;
75012;SDS011;63567;49.956;20.130;2024-01-15T12:22:21;6.18;;;3.05;;
75012;SDS011;63567;49.956;20.130;2024-01-15T12:24:47;5.83;;;2.90;;
75012;SDS011;63567;49.956;20.130;2024-01-15T12:27:12;6.87;;;3.30;;
75012;SDS011;63567;49.956;20.130;2024-01-15T12:29:37;5.00;;;2.70;;
75012;SDS011;63567;49.956;20.130;2024-01-15T12:32:04;7.32;;;3.40;;
75012;SDS011;63567;49.956;20.130;2024-01-15T12:34:30;7.57;;;3.20;;
75012;SDS011;63567;49.956;20.130;2024-01-15T12:36:56;5.85;;;2.78;;
75012;SDS011;63567;49.956;20.130;2024-01-15T12:39:22;7.43;;;3.30;;
75012;SDS011;63567;49.956;20.130;2024-01-15T12:41:47;7.73;;;2.80;;
75012;SDS011;63567;49.956;20.130;2024-01-15T12:44:13;7.13;;;3.00;;
75012;SDS011;63567;49.956;20.130;2024-01-15T12:46:38;6.53;;;3.30;;
75012;SDS011;63567;49.956;20.130;2024-01-15T12:49:04;5.30;;;2.43;;
75012;SDS011;63567;49.956;20.130;2024-01-15T12:51:29;6.70;;;2.97;;
75012;SDS011;63567;49.956;20.130;2024-01-15T12:53:54;5.23;;;2.50;;
75012;SDS011;63567;49.956;20.130;2024-01-15T12:56:19;5.60;;;2.57;;
75012;SDS011;63567;49.956;20.130;2024-01-15T12:58:45;6.47;;;3.33;;
75012;SDS011;63567;49.956;20.130;2024-01-15T13:01:10;5.40;;;2.60;;
75012;SDS011;63567;49.956;20.130;2024-01-15T13:03:35;6.32;;;2.40;;
75012;SDS011;63567;49.956;20.130;2024-01-15T13:06:01;5.23;;;2.70;;
75012;SDS011;63567;49.956;20.130;2024-01-15T13:08:28;5.53;;;2.50;;
75012;SDS011;63567;49.956;20.130;2024-01-15T13:10:54;6.50;;;2.83;;
75012;SDS011;63567;49.956;20.130;2024-01-15T13:13:22;5.63;;;2.47;;
75012;SDS011;63567;49.956;20.130;2024-01-15T13:15:47;5.67;;;2.80;;
75012;SDS011;63567;49.956;20.130;2024-01-15T13:18:12;5.40;;;2.53;;
75012;SDS011;63567;49.956;20.130;2024-01-15T13:20:37;6.17;;;2.80;;
75012;SDS011;63567;49.956;20.130;2024-01-15T13:23:03;7.27;;;3.30;;
75012;SDS011;63567;49.956;20.130;2024-01-15T13:25:28;6.65;;;3.25;;
75012;SDS011;63567;49.956;20.130;2024-01-15T13:27:54;6.57;;;3.23;;
75012;SDS011;63567;49.956;20.130;2024-01-15T13:30:19;6.63;;;3.37;;
75012;SDS011;63567;49.956;20.130;2024-01-15T13:32:45;7.03;;;3.47;;
75012;SDS011;63567;49.956;20.130;2024-01-15T13:35:10;7.88;;;3.47;;
75012;SDS011;63567;49.956;20.130;2024-01-15T13:37:38;6.90;;;3.63;;
75012;SDS011;63567;49.956;20.130;2024-01-15T13:40:06;7.85;;;3.88;;
75012;SDS011;63567;49.956;20.130;2024-01-15T13:42:34;8.25;;;4.00;;
75012;SDS011;63567;49.956;20.130;2024-01-15T13:45:00;6.70;;;3.35;;
75012;SDS011;63567;49.956;20.130;2024-01-15T13:47:25;6.70;;;3.60;;
75012;SDS011;63567;49.956;20.130;2024-01-15T13:49:50;7.90;;;4.17;;
75012;SDS011;63567;49.956;20.130;2024-01-15T13:52:15;7.47;;;4.23;;
75012;SDS011;63567;49.956;20.130;2024-01-15T13:54:41;8.57;;;3.83;;
75012;SDS011;63567;49.956;20.130;2024-01-15T13:57:06;8.13;;;4.22;;
75012;SDS011;63567;49.956;20.130;2024-01-15T13:59:32;7.33;;;3.77;;
75012;SDS011;63567;49.956;20.130;2024-01-15T14:01:57;9.25;;;4.07;;
75012;SDS011;63567;49.956;20.130;2024-01-15T14:04:23;8.43;;;4.10;;
75012;SDS011;63567;49.956;20.130;2024-01-15T14:06:48;9.70;;;4.30;;
75012;SDS011;63567;49.956;20.130;2024-01-15T14:09:13;9.00;;;3.47;;
75012;SDS011;63567;49.956;20.130;2024-01-15T14:11:39;8.93;;;3.60;;
75012;SDS011;63567;49.956;20.130;2024-01-15T14:14:05;8.25;;;4.03;;
75012;SDS011;63567;49.956;20.130;2024-01-15T14:16:30;7.57;;;3.60;;
75012;SDS011;63567;49.956;20.130;2024-01-15T14:18:56;8.80;;;3.87;;
75012;SDS011;63567;49.956;20.130;2024-01-15T14:21:21;9.70;;;4.07;;
75012;SDS011;63567;49.956;20.130;2024-01-15T14:23:46;8.50;;;3.80;;
75012;SDS011;63567;49.956;20.130;2024-01-15T14:26:12;9.30;;;3.60;;
75012;SDS011;63567;49.956;20.130;2024-01-15T14:28:37;7.53;;;3.60;;
75012;SDS011;63567;49.956;20.130;2024-01-15T14:31:03;7.60;;;4.28;;
75012;SDS011;63567;49.956;20.130;2024-01-15T14:33:30;8.00;;;3.72;;
75012;SDS011;63567;49.956;20.130;2024-01-15T14:35:56;11.20;;;4.90;;
75012;SDS011;63567;49.956;20.130;2024-01-15T14:38:21;8.30;;;4.07;;
75012;SDS011;63567;49.956;20.130;2024-01-15T14:40:48;7.93;;;4.00;;
75012;SDS011;63567;49.956;20.130;2024-01-15T14:43:14;8.32;;;3.72;;
75012;SDS011;63567;49.956;20.130;2024-01-15T14:45:39;7.60;;;3.77;;
75012;SDS011;63567;49.956;20.130;2024-01-15T14:48:04;8.40;;;4.13;;